Time;durP1;ratioP1;P1;durP2;ratioP2;P2;SDS_P1;SDS_P2;PMS_P1;PMS_P2;Temp;Humidity;BMP_temperature;BMP_pressure;BME280_temperature;BME280_humidity;BME280_pressure;Samples;Min_cycle;Max_cycle;Signal;HPM_P1;HPM_P2
2023/03/17 00:00:14;;;;;;;13.97;9.20;;;;;;;2.83;100.00;95018.81;5032605;28;20469;-72
2023/03/17 00:02:44;;;;;;;16.00;10.03;;;;;;;2.90;100.00;95016.75;5013777;28;20500;-72
2023/03/17 00:05:17;;;;;;;13.57;9.40;;;;;;;3.07;100.00;95027.88;5032256;28;20545;-73
2023/03/17 00:07:45;;;;;;;17.70;11.50;;;;;;;3.07;100.00;95032.22;5032664;28;20450;-72
2023/03/17 00:10:16;;;;;;;15.97;10.90;;;;;;;3.13;100.00;95025.88;5032303;28;20567;-73
2023/03/17 00:12:43;;;;;;;18.57;11.20;;;;;;;3.22;100.00;95025.41;5032477;28;20476;-71
2023/03/17 00:15:11;;;;;;;20.85;10.07;;;;;;;3.16;100.00;95030.88;5032414;28;20525;-72
2023/03/17 00:17:38;;;;;;;12.50;9.87;;;;;;;3.18;100.00;95031.63;5032411;28;20330;-73
2023/03/17 00:20:13;;;;;;;12.10;9.90;;;;;;;3.14;100.00;95032.72;5032143;28;20442;-73
2023/03/17 00:22:40;;;;;;;411.53;50.97;;;;;;;3.19;100.00;95033.34;5032121;28;20540;-74
2023/03/17 00:25:18;;;;;;;11.55;8.52;;;;;;;3.15;100.00;95022.28;5032483;28;20457;-72
2023/03/17 00:27:45;;;;;;;14.13;8.90;;;;;;;3.04;100.00;95030.63;5032203;28;20245;-72
2023/03/17 00:30:13;;;;;;;10.80;8.80;;;;;;;2.99;100.00;95030.03;5031996;28;20532;-73
2023/03/17 00:32:40;;;;;;;11.67;9.40;;;;;;;2.96;100.00;95031.97;5032062;28;20481;-73
2023/03/17 00:35:16;;;;;;;13.93;10.00;;;;;;;2.91;100.00;95027.03;5031974;28;20981;-72
2023/03/17 00:37:43;;;;;;;10.90;8.20;;;;;;;2.90;100.00;95024.53;5032208;28;20516;-72
2023/03/17 00:40:14;;;;;;;12.20;9.10;;;;;;;2.95;100.00;95028.53;5032264;28;20484;-72
2023/03/17 00:42:41;;;;;;;11.95;8.80;;;;;;;3.02;100.00;95029.88;4998506;28;20492;-72
2023/03/17 00:45:09;;;;;;;11.87;9.47;;;;;;;3.11;100.00;95036.31;5031808;28;20697;-72
2023/03/17 00:47:36;;;;;;;12.37;9.30;;;;;;;3.12;100.00;95030.22;5031921;28;20455;-73
2023/03/17 00:50:03;;;;;;;11.40;8.67;;;;;;;3.09;100.00;95028.63;5032116;28;20489;-73
2023/03/17 00:52:32;;;;;;;9.60;8.60;;;;;;;3.08;100.00;95034.72;5032721;28;20484;-72
2023/03/17 00:54:59;;;;;;;10.90;8.43;;;;;;;3.02;100.00;95042.84;5038467;28;20445;-73
2023/03/17 00:57:26;;;;;;;12.23;8.63;;;;;;;3.05;100.00;95029.72;5038607;28;20523;-72
2023/03/17 00:59:53;;;;;;;15.50;9.20;;;;;;;3.10;100.00;95043.25;5038496;28;20631;-74
2023/03/17 01:02:20;;;;;;;13.77;12.23;;;;;;;3.08;100.00;95032.13;5038777;28;20441;-73
2023/03/17 01:04:47;;;;;;;16.20;11.97;;;;;;;3.10;100.00;95042.44;5038690;28;20782;-71
2023/03/17 01:07:14;;;;;;;15.13;11.57;;;;;;;3.21;100.00;95039.28;5038457;28;20549;-72
2023/03/17 01:09:42;;;;;;;13.10;10.73;;;;;;;3.21;100.00;95044.47;5038075;28;20491;-72
2023/03/17 01:12:12;;;;;;;14.07;10.50;;;;;;;3.18;100.00;95044.59;5038573;28;20449;-73
2023/03/17 01:14:39;;;;;;;11.67;9.00;;;;;;;3.26;100.00;95048.47;5038309;28;20522;-73
2023/03/17 01:17:13;;;;;;;11.07;9.23;;;;;;;3.32;100.00;95049.91;5038391;28;20438;-73
2023/03/17 01:19:40;;;;;;;12.95;9.75;;;;;;;3.35;100.00;95047.97;5038312;28;20434;-72
2023/03/17 01:22:07;;;;;;;13.03;10.43;;;;;;;3.38;100.00;95049.56;5038492;28;20260;-73
2023/03/17 01:24:35;;;;;;;12.90;10.43;;;;;;;3.47;100.00;95045.63;5037969;28;20479;-73
2023/03/17 01:27:03;;;;;;;10.30;9.30;;;;;;;3.52;100.00;95041.03;5038101;28;20481;-73
2023/03/17 01:29:30;;;;;;;11.60;9.13;;;;;;;3.57;100.00;95037.28;5038325;28;20489;-72
2023/03/17 01:31:57;;;;;;;12.83;10.53;;;;;;;3.60;100.00;95037.09;5038378;28;20452;-73
2023/03/17 01:34:24;;;;;;;14.90;10.70;;;;;;;3.70;100.00;95046.03;5038198;28;20825;-72
2023/03/17 01:36:52;;;;;;;13.00;10.57;;;;;;;3.80;100.00;95048.13;5038223;28;20449;-73
2023/03/17 01:39:19;;;;;;;13.90;10.97;;;;;;;3.91;100.00;95046.59;5037917;28;20445;-73
2023/03/17 01:41:46;;;;;;;16.27;10.70;;;;;;;4.00;100.00;95048.66;5037811;28;20453;-71
2023/03/17 01:44:17;;;;;;;16.00;11.40;;;;;;;4.08;100.00;95048.25;5038013;28;20484;-72
2023/03/17 01:46:46;;;;;;;19.37;11.50;;;;;;;4.09;100.00;95049.09;5038055;28;20790;-73
2023/03/17 01:49:19;;;;;;;18.20;10.33;;;;;;;4.08;100.00;95050.84;5037900;28;20446;-72
2023/03/17 01:51:57;;;;;;;14.63;10.10;;;;;;;4.08;100.00;95050.84;5037970;28;20528;-72
2023/03/17 01:54:28;;;;;;;11.47;8.93;;;;;;;4.07;100.00;95050.94;5038138;28;20492;-73
2023/03/17 01:56:58;;;;;;;11.57;9.37;;;;;;;4.07;100.00;95048.34;5037980;28;20442;-74
2023/03/17 01:59:33;;;;;;;15.67;10.83;;;;;;;4.12;100.00;95052.34;5038668;28;20439;-73
2023/03/17 02:02:04;;;;;;;9.60;8.50;;;;;;;4.20;100.00;95057.94;5037706;28;20510;-73
2023/03/17 02:04:33;;;;;;;13.90;9.80;;;;;;;4.27;100.00;95059.25;5037022;28;20504;-73
2023/03/17 02:07:03;;;;;;;10.80;9.37;;;;;;;4.33;100.00;95061.47;5035043;28;20461;-73
2023/03/17 02:09:32;;;;;;;15.47;10.70;;;;;;;4.38;100.00;95069.03;5034583;28;20478;-73
2023/03/17 02:12:00;;;;;;;13.20;10.53;;;;;;;4.42;100.00;95067.94;5034716;28;20446;-73
2023/03/17 02:14:29;;;;;;;24.30;12.07;;;;;;;4.46;100.00;95063.38;5034745;28;20521;-71
2023/03/17 02:16:56;;;;;;;24.10;13.10;;;;;;;4.44;100.00;95070.44;4999566;28;20446;-73
2023/03/17 02:19:23;;;;;;;31.93;15.60;;;;;;;4.45;100.00;95059.97;5034437;28;20453;-71
2023/03/17 02:21:53;;;;;;;17.73;12.47;;;;;;;4.52;100.00;95070.81;5034820;28;20446;-73
2023/03/17 02:24:27;;;;;;;26.00;11.50;;;;;;;4.54;100.00;95079.34;5034323;28;20937;-73
2023/03/17 02:26:58;;;;;;;15.63;10.63;;;;;;;4.53;100.00;95075.09;5034563;28;20523;-73
2023/03/17 02:29:25;;;;;;;19.50;10.20;;;;;;;4.55;100.00;95081.03;5033954;28;20438;-72
2023/03/17 02:31:52;;;;;;;12.77;9.07;;;;;;;4.57;100.00;95076.56;4999199;28;20442;-73
2023/03/17 02:34:19;;;;;;;14.80;10.60;;;;;;;4.52;100.00;95078.63;5034344;28;20474;-71
2023/03/17 02:36:46;;;;;;;13.97;9.37;;;;;;;4.53;100.00;95077.69;5034226;28;20999;-72
2023/03/17 02:39:14;;;;;;;10.83;9.53;;;;;;;4.55;100.00;95086.22;5034365;28;20932;-72
2023/03/17 02:41:41;;;;;;;11.60;8.90;;;;;;;4.58;100.00;95086.06;5033961;28;20492;-72
2023/03/17 02:44:08;;;;;;;13.23;7.70;;;;;;;4.52;100.00;95087.25;5033880;28;20452;-73
2023/03/17 02:46:35;;;;;;;11.47;9.17;;;;;;;4.59;100.00;95087.72;5034656;28;20442;-73
2023/03/17 02:49:02;;;;;;;14.13;7.03;;;;;;;4.56;100.00;95091.34;5034313;28;20548;-74
2023/03/17 02:51:29;;;;;;;10.53;7.73;;;;;;;4.61;100.00;95104.06;5033662;28;21052;-74
2023/03/17 02:53:56;;;;;;;11.80;8.53;;;;;;;4.66;100.00;95102.06;5033865;28;20458;-72
2023/03/17 02:56:24;;;;;;;6.70;6.00;;;;;;;4.68;100.00;95104.56;5034230;28;20438;-73
2023/03/17 02:58:51;;;;;;;8.80;6.87;;;;;;;4.68;100.00;95099.38;5033858;28;20442;-72
2023/03/17 03:01:19;;;;;;;8.27;6.90;;;;;;;4.67;100.00;95101.13;5034022;28;20481;-72
2023/03/17 03:03:46;;;;;;;9.10;6.67;;;;;;;4.70;100.00;95103.53;5033670;28;20460;-73
2023/03/17 03:06:13;;;;;;;9.30;7.50;;;;;;;4.73;100.00;95103.38;4998543;28;20999;-72
2023/03/17 03:08:40;;;;;;;7.37;6.70;;;;;;;4.76;100.00;95099.75;5034050;28;20485;-73
2023/03/17 03:11:07;;;;;;;9.67;7.87;;;;;;;4.77;99.05;95099.66;5033553;28;20577;-74
2023/03/17 03:13:36;;;;;;;9.10;7.00;;;;;;;4.78;98.37;95106.53;5033509;28;20446;-72
2023/03/17 03:16:03;;;;;;;6.93;6.23;;;;;;;4.84;99.60;95120.91;5033066;28;20450;-73
2023/03/17 03:18:31;;;;;;;7.23;6.47;;;;;;;4.84;99.21;95113.13;5033418;28;20462;-73
2023/03/17 03:20:58;;;;;;;7.80;7.00;;;;;;;4.86;100.00;95111.25;5033332;28;20443;-72
2023/03/17 03:23:25;;;;;;;7.80;7.00;;;;;;;4.89;98.92;95117.13;5033379;28;20852;-73
2023/03/17 03:25:52;;;;;;;8.80;7.30;;;;;;;4.84;99.54;95120.91;5033185;28;20844;-73
2023/03/17 03:28:18;;;;;;;9.13;7.60;;;;;;;4.84;99.74;95118.31;5033222;28;20446;-72
2023/03/17 03:30:46;;;;;;;10.67;7.60;;;;;;;4.85;99.62;95126.03;5014937;28;20481;-73
2023/03/17 03:33:15;;;;;;;10.27;8.20;;;;;;;4.85;99.57;95123.44;5033740;28;20507;-71
2023/03/17 03:35:43;;;;;;;8.30;6.87;;;;;;;4.84;99.62;95123.50;5033338;28;20884;-73
2023/03/17 03:38:10;;;;;;;9.47;6.97;;;;;;;4.86;100.00;95122.50;5033319;28;20454;-73
2023/03/17 03:40:37;;;;;;;7.50;6.40;;;;;;;4.87;100.00;95131.97;5033552;28;20442;-73
2023/03/17 03:43:04;;;;;;;8.07;7.23;;;;;;;4.90;99.60;95128.34;5033508;28;20449;-71
2023/03/17 03:45:31;;;;;;;7.07;6.23;;;;;;;4.92;100.00;95127.38;5033600;28;20457;-72
2023/03/17 03:47:59;;;;;;;10.90;7.80;;;;;;;4.95;99.97;95128.94;5033501;28;20446;-73
2023/03/17 03:50:26;;;;;;;9.37;7.97;;;;;;;4.96;99.64;95136.66;5033362;28;20981;-72
2023/03/17 03:52:53;;;;;;;8.80;5.80;;;;;;;4.98;98.64;95139.16;5033343;28;20929;-73
2023/03/17 03:55:20;;;;;;;7.40;6.33;;;;;;;4.97;98.70;95134.88;5032862;28;20750;-73
2023/03/17 03:57:46;;;;;;;8.83;7.03;;;;;;;5.00;99.28;95141.66;5032720;28;20453;-72
2023/03/17 04:00:15;;;;;;;7.87;6.77;;;;;;;5.00;99.34;95136.47;5042612;28;20563;-73
2023/03/17 04:02:43;;;;;;;8.83;6.33;;;;;;;4.93;99.08;95134.25;5017558;28;20446;-73
2023/03/17 04:05:12;;;;;;;8.53;6.93;;;;;;;4.98;99.26;95146.97;5034036;28;20425;-73
2023/03/17 04:07:39;;;;;;;10.10;7.47;;;;;;;4.98;98.42;95157.38;5052901;28;20450;-71
2023/03/17 04:10:07;;;;;;;9.87;6.90;;;;;;;5.01;99.12;95149.38;5052879;28;20524;-71
2023/03/17 04:12:34;;;;;;;13.40;9.23;;;;;;;5.02;97.76;95145.84;5053032;28;20453;-72
2023/03/17 04:15:01;;;;;;;11.03;8.40;;;;;;;5.03;98.01;95152.72;5052742;28;20456;-71
2023/03/17 04:17:28;;;;;;;16.00;9.63;;;;;;;5.04;97.49;95159.59;5053078;28;20871;-73
2023/03/17 04:19:55;;;;;;;15.40;8.47;;;;;;;5.04;97.96;95158.75;5052710;28;20962;-72
2023/03/17 04:22:23;;;;;;;13.13;9.37;;;;;;;5.00;98.06;95171.09;5052615;28;20453;-72
2023/03/17 04:24:50;;;;;;;13.97;8.27;;;;;;;5.00;98.09;95172.88;5038632;28;20508;-72
2023/03/17 04:27:17;;;;;;;16.23;9.43;;;;;;;4.99;99.58;95166.84;5032554;28;20489;-71
2023/03/17 04:29:44;;;;;;;18.33;9.83;;;;;;;4.90;99.32;95165.59;5032044;28;20457;-72
2023/03/17 04:32:13;;;;;;;14.67;8.57;;;;;;;4.80;98.18;95172.25;5032599;28;21187;-72
2023/03/17 04:34:41;;;;;;;13.50;8.00;;;;;;;4.62;99.00;95174.13;5032418;28;20466;-72
2023/03/17 04:37:09;;;;;;;11.73;8.20;;;;;;;4.61;99.04;95174.22;5032754;28;20516;-73
2023/03/17 04:39:37;;;;;;;9.67;7.80;;;;;;;4.49;99.82;95170.56;5032474;28;20523;-71
2023/03/17 04:42:04;;;;;;;10.60;8.03;;;;;;;4.49;99.97;95167.97;5032506;28;20454;-72
2023/03/17 04:44:31;;;;;;;10.77;8.20;;;;;;;4.50;100.00;95166.22;5032822;28;20492;-72
2023/03/17 04:46:58;;;;;;;12.73;9.37;;;;;;;4.51;100.00;95166.13;5032361;28;20453;-71
2023/03/17 04:49:26;;;;;;;15.33;11.00;;;;;;;4.52;99.99;95178.19;5032466;28;20450;-73
2023/03/17 04:51:52;;;;;;;15.80;10.93;;;;;;;4.55;100.00;95179.78;5032493;28;20977;-71
2023/03/17 04:54:19;;;;;;;13.07;10.43;;;;;;;4.56;100.00;95179.69;5032601;28;20827;-71
2023/03/17 04:56:47;;;;;;;17.33;10.20;;;;;;;4.58;100.00;95177.84;5032452;28;20972;-72
2023/03/17 04:59:15;;;;;;;11.40;8.37;;;;;;;4.62;100.00;95176.72;5033849;28;21022;-72
2023/03/17 05:01:41;;;;;;;6.93;6.27;;;;;;;4.67;100.00;95181.69;5052198;28;20461;-71
2023/03/17 05:04:08;;;;;;;11.67;7.87;;;;;;;4.68;100.00;95187.72;5052546;28;20473;-72
2023/03/17 05:06:36;;;;;;;8.37;7.53;;;;;;;4.76;99.96;95195.91;5052557;28;20449;-72
2023/03/17 05:09:03;;;;;;;11.50;8.90;;;;;;;4.76;99.13;95201.97;5052030;28;20823;-72
2023/03/17 05:11:31;;;;;;;12.33;9.13;;;;;;;4.71;98.58;95195.34;5051481;28;20513;-71
2023/03/17 05:13:59;;;;;;;13.13;10.00;;;;;;;4.72;99.46;95200.47;5052410;28;20485;-71
2023/03/17 05:16:25;;;;;;;11.50;9.13;;;;;;;4.68;99.67;95208.53;5052136;28;20826;-71
2023/03/17 05:18:54;;;;;;;14.13;7.80;;;;;;;4.63;100.00;95214.00;5052098;28;20933;-72
2023/03/17 05:21:25;;;;;;;10.33;9.27;;;;;;;4.66;100.00;95234.59;5052632;28;20514;-72
2023/03/17 05:23:52;;;;;;;8.87;7.30;;;;;;;4.60;99.24;95230.56;5052069;28;20470;-73
2023/03/17 05:26:20;;;;;;;11.10;8.20;;;;;;;4.55;99.72;95229.16;5052095;28;20456;-72
2023/03/17 05:28:47;;;;;;;9.30;8.33;;;;;;;4.54;99.46;95227.47;5051836;28;20510;-72
2023/03/17 05:31:15;;;;;;;10.77;8.23;;;;;;;4.51;100.00;95232.84;5051408;28;20493;-72
2023/03/17 05:33:45;;;;;;;15.13;9.60;;;;;;;4.46;100.00;95229.66;5053946;28;20461;-71
2023/03/17 05:36:12;;;;;;;28.17;15.60;;;;;;;4.34;100.00;95232.03;5054132;28;20552;-72
2023/03/17 05:38:39;;;;;;;21.77;14.50;;;;;;;4.33;100.00;95239.88;5050562;28;20948;-71
2023/03/17 05:41:06;;;;;;;30.63;19.60;;;;;;;4.30;100.00;95242.66;5054982;28;20457;-72
2023/03/17 05:43:35;;;;;;;23.00;15.27;;;;;;;4.29;100.00;95238.38;5055455;28;20444;-72
2023/03/17 05:46:02;;;;;;;14.63;11.90;;;;;;;4.35;100.00;95238.91;5055336;28;20966;-72
2023/03/17 05:48:30;;;;;;;16.10;11.77;;;;;;;4.42;100.00;95239.41;5055145;28;20449;-72
2023/03/17 05:50:57;;;;;;;19.87;11.50;;;;;;;4.51;100.00;95245.84;5055182;28;20510;-72
2023/03/17 05:53:24;;;;;;;23.93;11.63;;;;;;;4.57;100.00;95248.09;5055310;28;20452;-71
2023/03/17 05:55:52;;;;;;;14.57;9.77;;;;;;;4.60;100.00;95237.53;5055354;28;20518;-71
2023/03/17 05:58:19;;;;;;;12.67;9.07;;;;;;;4.63;100.00;95243.41;5055853;28;20441;-71
2023/03/17 06:00:46;;;;;;;23.67;9.10;;;;;;;4.63;100.00;95252.97;5055054;28;20562;-73
2023/03/17 06:03:14;;;;;;;11.20;7.93;;;;;;;4.74;100.00;95250.59;5054979;28;20567;-71
2023/03/17 06:05:42;;;;;;;13.77;10.23;;;;;;;4.80;100.00;95252.84;5054864;28;20448;-71
2023/03/17 06:08:11;;;;;;;16.27;10.40;;;;;;;4.77;100.00;95270.38;5055119;28;20442;-71
2023/03/17 06:10:38;;;;;;;13.97;9.77;;;;;;;4.80;100.00;95272.81;5030549;28;20454;-72
2023/03/17 06:13:05;;;;;;;16.23;11.43;;;;;;;4.78;100.00;95269.47;5053001;28;20450;-72
2023/03/17 06:15:32;;;;;;;20.90;13.07;;;;;;;4.69;99.50;95270.81;5054470;28;20503;-72
2023/03/17 06:17:59;;;;;;;31.90;15.73;;;;;;;4.74;98.68;95280.94;5054095;28;20444;-73
2023/03/17 06:20:26;;;;;;;16.50;11.60;;;;;;;4.71;99.58;95294.97;5054147;28;20289;-72
2023/03/17 06:22:54;;;;;;;29.17;15.57;;;;;;;4.71;99.42;95296.72;5018373;28;20472;-71
2023/03/17 06:25:20;;;;;;;30.07;17.83;;;;;;;4.77;99.36;95296.38;5053740;28;20503;-73
2023/03/17 06:27:48;;;;;;;28.73;16.53;;;;;;;4.74;100.00;95300.00;5054558;28;20445;-73
2023/03/17 06:30:15;;;;;;;15.10;12.67;;;;;;;4.65;99.87;95303.94;5054758;28;20457;-73
2023/03/17 06:32:41;;;;;;;18.00;12.70;;;;;;;4.67;100.00;95306.47;5054022;28;20501;-71
2023/03/17 06:35:09;;;;;;;21.67;13.10;;;;;;;4.76;100.00;95310.31;5054176;28;20510;-72
2023/03/17 06:37:36;;;;;;;13.63;10.90;;;;;;;4.83;100.00;95309.88;5053564;28;20491;-71
2023/03/17 06:40:08;;;;;;;12.53;9.67;;;;;;;4.79;99.33;95310.97;5053446;28;20445;-72
2023/03/17 06:42:35;;;;;;;14.60;10.43;;;;;;;4.79;97.98;95310.97;5053751;28;20457;-71
2023/03/17 06:45:02;;;;;;;14.40;9.77;;;;;;;4.87;98.82;95316.56;5054305;28;20913;-72
2023/03/17 06:47:29;;;;;;;17.27;11.50;;;;;;;4.94;98.58;95317.94;5054424;28;20445;-71
2023/03/17 06:49:56;;;;;;;12.27;9.47;;;;;;;4.98;98.10;95314.22;5054284;28;20434;-71
2023/03/17 06:52:23;;;;;;;9.33;8.40;;;;;;;4.98;97.73;95313.38;5052785;28;20555;-71
2023/03/17 06:54:50;;;;;;;12.37;8.10;;;;;;;5.01;97.68;95315.81;5053680;28;20453;-72
2023/03/17 06:57:18;;;;;;;9.90;7.47;;;;;;;5.12;96.95;95308.22;5053722;28;20912;-71
2023/03/17 06:59:45;;;;;;;9.30;7.20;;;;;;;5.17;96.82;95318.38;5053139;28;20489;-70
2023/03/17 07:02:12;;;;;;;7.87;7.10;;;;;;;5.20;95.20;95310.38;5052947;28;20496;-72
2023/03/17 07:04:39;;;;;;;8.67;7.60;;;;;;;5.26;95.81;95310.91;5051414;28;20453;-70
2023/03/17 07:07:06;;;;;;;15.40;10.37;;;;;;;5.30;95.51;95308.97;5030051;28;20449;-71
2023/03/17 07:09:33;;;;;;;17.73;11.37;;;;;;;5.36;96.21;95303.41;5052267;28;20457;-72
2023/03/17 07:12:03;;;;;;;11.60;8.93;;;;;;;5.49;95.44;95312.19;5052433;28;20562;-70
2023/03/17 07:14:34;;;;;;;10.30;7.60;;;;;;;5.49;95.14;95309.56;5053276;28;20454;-71
2023/03/17 07:17:01;;;;;;;11.27;8.17;;;;;;;5.54;95.85;95315.34;5053258;28;20441;-72
2023/03/17 07:19:27;;;;;;;41.87;24.20;;;;;;;5.56;94.39;95323.91;5052079;28;20793;-71
2023/03/17 07:21:55;;;;;;;18.23;13.77;;;;;;;5.53;93.76;95320.66;5053283;28;20524;-70
2023/03/17 07:24:22;;;;;;;20.47;14.47;;;;;;;5.44;92.45;95324.59;5052458;28;20490;-72
2023/03/17 07:26:49;;;;;;;11.43;7.97;;;;;;;5.39;92.83;95318.81;5053236;28;20499;-71
2023/03/17 07:29:16;;;;;;;10.93;7.23;;;;;;;5.26;92.71;95325.69;4998389;28;20457;-72
2023/03/17 07:31:45;;;;;;;12.70;8.77;;;;;;;5.27;94.06;95319.53;5033076;28;20490;-73
2023/03/17 07:34:12;;;;;;;16.80;10.90;;;;;;;5.21;94.64;95328.53;5033206;28;20494;-72
2023/03/17 07:36:39;;;;;;;16.87;11.30;;;;;;;5.25;95.13;95329.19;5033192;28;20960;-72
2023/03/17 07:39:06;;;;;;;16.40;10.33;;;;;;;5.27;95.67;95327.34;5033273;28;20500;-72
2023/03/17 07:41:33;;;;;;;11.63;8.57;;;;;;;5.36;95.41;95316.41;5033100;28;20879;-72
2023/03/17 07:44:00;;;;;;;13.10;9.03;;;;;;;5.43;94.69;95328.13;5032824;28;20446;-73
2023/03/17 07:46:27;;;;;;;8.17;7.27;;;;;;;5.42;94.07;95330.81;5032610;28;20465;-71
2023/03/17 07:48:55;;;;;;;18.80;11.70;;;;;;;5.40;93.72;95336.13;5032890;28;20788;-71
2023/03/17 07:51:26;;;;;;;8.00;6.53;;;;;;;5.39;92.84;95334.44;5032556;28;20929;-72
2023/03/17 07:53:54;;;;;;;8.00;7.17;;;;;;;5.47;93.59;95339.19;5032629;28;20938;-71
2023/03/17 07:56:21;;;;;;;10.80;9.70;;;;;;;5.35;92.52;95345.13;5032509;28;20533;-72
2023/03/17 07:58:48;;;;;;;12.27;7.80;;;;;;;5.48;94.39;95344.31;5032657;28;20474;-72
2023/03/17 08:01:15;;;;;;;13.63;9.90;;;;;;;5.65;95.75;95345.13;5032834;28;20450;-70
2023/03/17 08:03:42;;;;;;;11.03;9.00;;;;;;;5.72;93.35;95351.63;5032645;28;20453;-72
2023/03/17 08:06:10;;;;;;;9.87;8.93;;;;;;;5.67;91.83;95353.66;5032683;28;20543;-71
2023/03/17 08:08:37;;;;;;;20.60;13.63;;;;;;;5.59;92.90;95348.91;4997601;28;20813;-71
2023/03/17 08:11:06;;;;;;;18.87;12.10;;;;;;;5.70;94.49;95348.28;5032625;28;20925;-72
2023/03/17 08:13:34;;;;;;;17.10;9.97;;;;;;;5.86;94.92;95342.09;5032314;28;21014;-72
2023/03/17 08:16:01;;;;;;;12.43;9.63;;;;;;;6.00;95.22;95343.91;5032536;28;20533;-72
2023/03/17 08:18:28;;;;;;;15.37;10.70;;;;;;;6.13;93.81;95350.06;5032413;28;20866;-72
2023/03/17 08:20:54;;;;;;;20.87;12.40;;;;;;;6.21;93.16;95350.44;5032301;28;20453;-72
2023/03/17 08:23:22;;;;;;;15.93;12.10;;;;;;;6.16;90.76;95352.50;5032883;28;20446;-72
2023/03/17 08:25:49;;;;;;;16.63;11.37;;;;;;;6.20;92.24;95353.97;5030019;28;20438;-71
2023/03/17 08:28:16;;;;;;;16.17;10.40;;;;;;;6.27;92.58;95351.84;5032197;28;20849;-72
2023/03/17 08:30:43;;;;;;;12.77;9.97;;;;;;;6.30;91.43;95351.63;5032207;28;20462;-73
2023/03/17 08:33:10;;;;;;;12.63;10.27;;;;;;;6.28;91.26;95353.50;5032038;28;20505;-71
2023/03/17 08:35:40;;;;;;;11.33;9.43;;;;;;;6.29;91.76;95349.97;5032504;28;20481;-70
2023/03/17 08:38:07;;;;;;;12.10;10.27;;;;;;;6.32;91.83;95349.78;5032399;28;20450;-72
2023/03/17 08:40:36;;;;;;;12.03;8.10;;;;;;;6.37;91.49;95352.13;5032058;28;20980;-71
2023/03/17 08:43:03;;;;;;;13.93;9.43;;;;;;;6.33;90.56;95356.66;5032253;28;20501;-71
2023/03/17 08:45:30;;;;;;;12.43;8.60;;;;;;;6.44;92.21;95348.22;5032908;28;20442;-71
2023/03/17 08:47:57;;;;;;;9.10;8.00;;;;;;;6.51;91.28;95349.50;5034225;28;20794;-72
2023/03/17 08:50:24;;;;;;;14.37;9.23;;;;;;;6.63;91.02;95358.31;5033612;28;20457;-73
2023/03/17 08:52:53;;;;;;;15.60;9.87;;;;;;;6.58;89.40;95350.78;5034020;28;20557;-72
2023/03/17 08:55:19;;;;;;;11.23;7.63;;;;;;;6.51;88.06;95354.72;5035146;28;20521;-72
2023/03/17 08:57:48;;;;;;;12.17;10.07;;;;;;;6.46;89.64;95356.78;5032359;28;20435;-72
2023/03/17 09:00:19;;;;;;;9.50;8.33;;;;;;;6.52;90.61;95351.19;5035608;28;20450;-71
2023/03/17 09:02:46;;;;;;;10.90;8.60;;;;;;;6.56;89.95;95351.81;5001905;28;20810;-72
2023/03/17 09:05:15;;;;;;;11.50;8.10;;;;;;;6.68;90.97;95351.91;5035849;28;20454;-71
2023/03/17 09:07:42;;;;;;;12.00;9.47;;;;;;;6.71;87.95;95356.94;5035267;28;20499;-72
2023/03/17 09:10:12;;;;;;;14.10;10.13;;;;;;;6.81;89.21;95358.03;5036170;28;20450;-71
2023/03/17 09:12:39;;;;;;;10.23;8.33;;;;;;;6.81;87.29;95358.03;5034524;28;20485;-72
2023/03/17 09:15:09;;;;;;;14.17;9.10;;;;;;;6.79;86.04;95354.69;5036221;28;20796;-72
2023/03/17 09:17:36;;;;;;;11.07;8.10;;;;;;;6.95;87.21;95362.41;5035690;28;20925;-72
2023/03/17 09:20:05;;;;;;;7.60;6.90;;;;;;;7.02;84.66;95366.28;5035776;28;20453;-72
2023/03/17 09:22:32;;;;;;;10.10;7.50;;;;;;;7.14;83.39;95368.09;5035580;28;20480;-72
2023/03/17 09:24:59;;;;;;;10.30;6.47;;;;;;;7.21;81.32;95376.38;5035813;28;20456;-71
2023/03/17 09:27:26;;;;;;;10.27;7.33;;;;;;;7.31;80.41;95361.81;5035772;28;20444;-72
2023/03/17 09:29:53;;;;;;;12.00;8.27;;;;;;;7.51;81.86;95362.28;5035520;28;20442;-73
2023/03/17 09:32:21;;;;;;;8.07;7.23;;;;;;;7.65;80.76;95363.06;5035480;28;20992;-72
2023/03/17 09:34:48;;;;;;;7.50;6.80;;;;;;;7.78;80.78;95366.53;5035399;28;20485;-72
2023/03/17 09:37:15;;;;;;;20.00;6.67;;;;;;;7.83;79.85;95368.03;5035124;28;20501;-73
2023/03/17 09:39:41;;;;;;;11.03;7.30;;;;;;;7.85;78.59;95369.59;5000192;28;20452;-72
2023/03/17 09:42:18;;;;;;;6.77;6.17;;;;;;;7.89;78.15;95368.44;5033087;28;20442;-71
2023/03/17 09:44:58;;;;;;;6.63;5.93;;;;;;;8.00;77.67;95368.56;5032781;28;20490;-72
2023/03/17 09:48:13;;;;;;;8.37;5.70;;;;;;;7.99;75.45;95369.50;5035401;28;20449;-72
2023/03/17 09:50:48;;;;;;;8.40;5.93;;;;;;;8.05;76.91;95376.09;4973897;28;20453;-72
2023/03/17 09:53:21;;;;;;;12.57;9.07;;;;;;;8.06;76.69;95370.75;4973714;28;20485;-73
2023/03/17 09:55:51;;;;;;;10.03;6.97;;;;;;;7.90;76.13;95375.34;4973668;28;20449;-72
2023/03/17 09:58:25;;;;;;;8.50;7.60;;;;;;;7.83;76.70;95379.31;4973854;28;20536;-73
2023/03/17 10:00:52;;;;;;;10.57;6.50;;;;;;;7.85;76.20;95374.81;4973828;28;20453;-72
2023/03/17 10:03:21;;;;;;;8.87;5.40;;;;;;;7.94;76.41;95370.75;4973557;28;20450;-72
2023/03/17 10:05:48;;;;;;;8.10;6.20;;;;;;;7.87;74.26;95378.16;4973694;28;20848;-72
2023/03/17 10:08:20;;;;;;;7.40;6.40;;;;;;;7.84;74.96;95381.00;4973688;28;20454;-72
2023/03/17 10:10:53;;;;;;;14.90;7.90;;;;;;;7.65;75.82;95375.28;4973567;28;20920;-71
2023/03/17 10:13:28;;;;;;;9.93;6.93;;;;;;;7.61;76.12;95373.81;4973360;28;20535;-72
2023/03/17 10:16:00;;;;;;;13.87;7.73;;;;;;;7.51;76.55;95380.56;4973583;28;20453;-71
2023/03/17 10:18:33;;;;;;;8.17;6.93;;;;;;;7.48;76.21;95379.00;4973478;28;20473;-71
2023/03/17 10:21:03;;;;;;;7.43;6.57;;;;;;;7.53;75.74;95373.50;4973571;28;20454;-71
2023/03/17 10:23:33;;;;;;;10.87;8.10;;;;;;;7.64;76.98;95374.44;4973534;28;20445;-72
2023/03/17 10:26:06;;;;;;;12.63;7.33;;;;;;;7.67;76.55;95374.25;4972000;28;20464;-72
2023/03/17 10:28:37;;;;;;;9.67;6.03;;;;;;;7.57;75.79;95374.97;5026031;28;20795;-72
2023/03/17 10:31:14;;;;;;;8.27;7.17;;;;;;;7.62;75.79;95378.09;5000210;28;20867;-72
2023/03/17 10:33:44;;;;;;;10.67;7.27;;;;;;;7.63;76.15;95377.16;5034569;28;20485;-71
2023/03/17 10:36:15;;;;;;;14.43;6.90;;;;;;;7.60;75.88;95365.16;5034123;28;20490;-71
2023/03/17 10:38:50;;;;;;;10.70;5.10;;;;;;;7.72;76.10;95363.50;5034373;28;20537;-72
2023/03/17 10:41:17;;;;;;;6.33;4.30;;;;;;;7.87;74.93;95365.09;5034206;28;20995;-72
2023/03/17 10:43:47;;;;;;;6.00;4.67;;;;;;;8.04;74.28;95363.97;5034352;28;20451;-72
2023/03/17 10:46:21;;;;;;;5.70;5.10;;;;;;;8.20;72.75;95364.63;5034537;28;20443;-72
2023/03/17 10:48:53;;;;;;;9.00;7.23;;;;;;;8.32;72.20;95369.00;5031948;28;20436;-72
2023/03/17 10:51:30;;;;;;;8.80;7.30;;;;;;;8.46;72.11;95373.31;5033976;28;20935;-72
2023/03/17 10:54:00;;;;;;;8.67;6.43;;;;;;;8.57;72.24;95360.34;5033704;28;20548;-73
2023/03/17 10:56:33;;;;;;;9.97;6.00;;;;;;;8.59;69.95;95362.84;5034193;28;20483;-72
2023/03/17 10:59:06;;;;;;;10.53;6.13;;;;;;;8.68;70.34;95355.22;5034020;28;20501;-73
2023/03/17 11:01:38;;;;;;;9.50;6.07;;;;;;;8.82;69.70;95358.63;5034053;28;20459;-73
2023/03/17 11:04:26;;;;;;;13.13;6.10;;;;;;;8.96;69.50;95348.88;5033569;28;20536;-72
2023/03/17 11:06:55;;;;;;;7.63;5.60;;;;;;;9.10;68.48;95341.81;5033904;28;20533;-73
2023/03/17 11:09:22;;;;;;;11.50;6.30;;;;;;;8.92;67.91;95342.16;5033866;28;20436;-72
2023/03/17 11:11:58;;;;;;;8.83;7.00;;;;;;;8.89;70.02;95331.91;5033955;28;20445;-72
2023/03/17 11:14:27;;;;;;;8.20;5.27;;;;;;;8.54;65.98;95329.16;5033863;28;20482;-72
2023/03/17 11:16:55;;;;;;;9.03;5.90;;;;;;;8.54;66.73;95334.41;5033633;28;20456;-72
2023/03/17 11:19:31;;;;;;;7.47;6.30;;;;;;;8.70;67.71;95323.72;5033544;28;20440;-72
2023/03/17 11:22:07;;;;;;;6.10;5.23;;;;;;;8.86;69.78;95315.59;5033605;28;20448;-72
2023/03/17 11:24:40;;;;;;;8.80;6.47;;;;;;;8.95;70.14;95307.91;5033621;28;20440;-73
2023/03/17 11:27:17;;;;;;;6.40;5.13;;;;;;;9.09;68.40;95319.19;5033297;28;20485;-71
2023/03/17 11:30:10;;;;;;;7.07;5.57;;;;;;;9.22;67.33;95325.19;5033208;28;20949;-72
2023/03/17 11:32:42;;;;;;;11.37;7.43;;;;;;;9.22;67.46;95327.81;5033304;28;20496;-72
2023/03/17 11:35:37;;;;;;;18.93;7.67;;;;;;;9.24;66.86;95323.28;5033060;28;20485;-71